createdAt,value
2022-10-18T00:00:15.419Z,45.60
2022-10-18T00:03:04.653Z,44.97
2022-10-18T00:05:55.652Z,41.00
2022-10-18T00:08:44.672Z,37.97
2022-10-18T00:11:33.732Z,41.13
2022-10-18T00:14:23.411Z,34.78
2022-10-18T00:17:12.690Z,37.95
2022-10-18T00:20:02.318Z,44.53
2022-10-18T00:22:52.322Z,44.85
2022-10-18T00:25:41.416Z,35.80
2022-10-18T00:28:30.721Z,41.20
2022-10-18T00:31:27.911Z,39.70
2022-10-18T00:34:17.886Z,36.13
2022-10-18T00:37:07.112Z,36.00
2022-10-18T00:39:57.482Z,34.90
2022-10-18T00:42:46.067Z,34.63
2022-10-18T00:45:35.341Z,39.28
2022-10-18T00:48:25.279Z,34.92
2022-10-18T00:51:16.668Z,34.10
2022-10-18T00:54:06.512Z,36.80
2022-10-18T00:56:57.579Z,35.75
2022-10-18T00:59:48.254Z,37.00
2022-10-18T01:02:37.654Z,39.30
2022-10-18T01:05:27.851Z,43.35
2022-10-18T01:08:49.902Z,38.55
2022-10-18T01:12:08.724Z,40.58
2022-10-18T01:15:06.609Z,36.08
2022-10-18T01:18:07.237Z,40.88
2022-10-18T01:21:19.133Z,37.53
2022-10-18T01:24:52.894Z,37.25
2022-10-18T01:27:54.122Z,32.00
2022-10-18T01:31:00.146Z,41.00
2022-10-18T01:33:53.871Z,35.72
2022-10-18T01:36:45.640Z,36.65
2022-10-18T01:39:38.840Z,33.92
2022-10-18T01:42:28.515Z,39.33
2022-10-18T01:45:18.567Z,36.50
2022-10-18T01:48:10.755Z,44.47
2022-10-18T01:51:01.764Z,42.65
2022-10-18T01:53:51.326Z,39.35
2022-10-18T01:56:48.804Z,44.08
2022-10-18T01:59:45.862Z,48.13
2022-10-18T02:02:44.398Z,40.83
2022-10-18T02:05:42.820Z,38.20
2022-10-18T02:08:39.257Z,39.58
2022-10-18T02:11:30.089Z,39.05
2022-10-18T02:14:21.441Z,37.33
2022-10-18T02:17:13.951Z,44.35
2022-10-18T02:20:03.953Z,40.35
2022-10-18T02:22:57.118Z,40.92
2022-10-18T02:25:46.571Z,44.38
2022-10-18T02:28:36.556Z,34.15
2022-10-18T02:31:28.862Z,37.42
2022-10-18T02:34:22.511Z,40.75
2022-10-18T02:37:13.110Z,37.70
2022-10-18T02:40:05.478Z,37.03
2022-10-18T02:42:58.166Z,36.53
2022-10-18T02:45:46.875Z,43.45
2022-10-18T02:48:36.273Z,41.97
2022-10-18T02:51:25.322Z,35.95
2022-10-18T02:54:14.491Z,38.80
2022-10-18T02:57:05.550Z,34.90
2022-10-18T02:59:55.210Z,35.75
2022-10-18T03:02:44.689Z,35.85
2022-10-18T03:05:33.810Z,35.08
2022-10-18T03:08:22.898Z,36.30
2022-10-18T03:11:11.988Z,32.50
2022-10-18T03:14:03.073Z,36.53
2022-10-18T03:16:52.647Z,35.75
2022-10-18T03:19:42.217Z,30.35
2022-10-18T03:22:31.898Z,31.98
2022-10-18T03:25:21.313Z,32.20
2022-10-18T03:28:10.485Z,34.40
2022-10-18T03:31:04.554Z,37.85
2022-10-18T03:33:53.970Z,32.08
2022-10-18T03:36:42.715Z,34.83
2022-10-18T03:39:31.793Z,36.90
2022-10-18T03:42:20.902Z,32.00
2022-10-18T03:45:10.851Z,30.75
2022-10-18T03:48:01.692Z,30.38
2022-10-18T03:50:50.852Z,34.15
2022-10-18T03:53:39.972Z,28.10
2022-10-18T03:56:28.790Z,33.17
2022-10-18T03:59:17.872Z,31.40
2022-10-18T04:02:06.636Z,30.92
2022-10-18T04:04:58.982Z,31.27
2022-10-18T04:07:48.173Z,34.42
2022-10-18T04:10:39.088Z,30.90
2022-10-18T04:13:27.939Z,28.13
2022-10-18T04:16:17.167Z,30.10
2022-10-18T04:19:06.397Z,27.48
2022-10-18T04:21:57.362Z,30.65
2022-10-18T04:24:46.531Z,38.08
2022-10-18T04:27:35.725Z,34.70
2022-10-18T04:30:25.276Z,35.00
2022-10-18T04:33:14.058Z,31.58
2022-10-18T04:36:03.168Z,31.98
2022-10-18T04:38:53.499Z,30.60
2022-10-18T04:41:42.467Z,32.55
2022-10-18T04:44:31.198Z,26.42
2022-10-18T04:47:20.073Z,33.33
2022-10-18T04:50:09.849Z,27.52
2022-10-18T04:52:59.136Z,25.65
2022-10-18T04:55:51.044Z,29.23
2022-10-18T04:58:40.059Z,28.45
2022-10-18T05:01:29.654Z,31.80
2022-10-18T05:04:18.810Z,28.17
2022-10-18T05:07:08.684Z,32.67
2022-10-18T05:09:58.006Z,31.23
2022-10-18T05:12:48.530Z,32.03
2022-10-18T05:15:37.966Z,28.88
2022-10-18T05:18:28.037Z,34.63
2022-10-18T05:21:17.283Z,27.13
2022-10-18T05:24:06.710Z,31.20
2022-10-18T05:26:56.308Z,32.15
2022-10-18T05:29:47.076Z,25.60
2022-10-18T05:32:36.104Z,29.27
2022-10-18T05:35:25.210Z,26.48
2022-10-18T05:38:14.262Z,25.30
2022-10-18T05:41:07.386Z,28.05
2022-10-18T05:43:56.248Z,31.35
2022-10-18T05:46:46.980Z,32.30
2022-10-18T05:49:36.123Z,28.20
2022-10-18T05:52:25.423Z,30.42
2022-10-18T05:55:15.052Z,31.35
2022-10-18T05:58:05.300Z,35.35
2022-10-18T06:00:55.945Z,28.85
2022-10-18T06:03:46.747Z,23.65
2022-10-18T06:06:36.669Z,32.88
2022-10-18T06:09:26.035Z,30.55
2022-10-18T06:12:15.375Z,24.63
2022-10-18T06:15:05.037Z,25.77
2022-10-18T06:17:53.827Z,26.65
2022-10-18T06:20:44.609Z,29.48
2022-10-18T06:23:33.914Z,28.05
2022-10-18T06:26:23.296Z,24.17
2022-10-18T06:29:12.755Z,30.58
2022-10-18T06:32:02.138Z,25.80
2022-10-18T06:34:51.223Z,23.55
2022-10-18T06:40:37.800Z,31.77
2022-10-18T06:43:27.191Z,32.38
2022-10-18T06:46:16.317Z,27.60
2022-10-18T06:49:05.153Z,26.95
2022-10-18T06:51:55.722Z,27.55
2022-10-18T06:54:46.156Z,33.63
2022-10-18T06:57:35.362Z,24.27
2022-10-18T07:00:24.156Z,45.22
2022-10-18T07:03:13.502Z,41.78
2022-10-18T07:06:03.041Z,30.27
2022-10-18T07:08:54.113Z,30.98
2022-10-18T07:11:44.974Z,31.75
2022-10-18T07:14:34.120Z,29.73
2022-10-18T07:17:23.011Z,29.83
2022-10-18T07:20:12.053Z,29.40
2022-10-18T07:23:01.011Z,29.50
2022-10-18T07:25:50.415Z,31.70
2022-10-18T07:28:41.011Z,26.80
2022-10-18T07:31:30.718Z,26.98
2022-10-18T07:34:19.661Z,30.95
2022-10-18T07:37:08.434Z,24.27
2022-10-18T07:39:57.289Z,26.00
2022-10-18T07:42:46.255Z,24.33
2022-10-18T07:48:27.127Z,26.67
2022-10-18T07:51:16.586Z,25.25
2022-10-18T07:54:06.379Z,24.42
2022-10-18T07:56:55.371Z,20.98
2022-10-18T07:59:46.586Z,19.50
2022-10-18T08:02:37.540Z,25.65
2022-10-18T08:05:28.175Z,23.40
2022-10-18T08:08:17.475Z,23.52
2022-10-18T08:11:08.432Z,25.52
2022-10-18T08:13:57.816Z,25.95
2022-10-18T08:16:48.137Z,22.55
2022-10-18T08:19:44.625Z,21.20
2022-10-18T08:22:42.712Z,22.67
2022-10-18T08:25:32.368Z,28.55
2022-10-18T08:28:22.008Z,28.75
2022-10-18T08:31:13.960Z,32.72
2022-10-18T08:34:03.483Z,38.15
2022-10-18T08:36:54.052Z,33.67
2022-10-18T08:39:43.282Z,40.00
2022-10-18T08:42:46.017Z,39.20
2022-10-18T08:45:43.178Z,41.08
2022-10-18T08:48:37.119Z,39.95
2022-10-18T08:51:30.991Z,40.88
2022-10-18T08:54:28.455Z,52.47
2022-10-18T08:57:18.877Z,42.25
2022-10-18T09:00:16.501Z,39.38
2022-10-18T09:03:14.227Z,35.80
2022-10-18T09:06:11.273Z,39.35
2022-10-18T09:09:21.474Z,40.10
2022-10-18T09:12:31.040Z,43.88
2022-10-18T09:15:24.888Z,43.85
2022-10-18T09:18:32.720Z,41.03
2022-10-18T09:21:24.904Z,55.30
2022-10-18T09:24:16.377Z,47.20
2022-10-18T09:27:12.861Z,49.22
2022-10-18T09:30:11.828Z,53.72
2022-10-18T09:33:07.499Z,53.38
2022-10-18T09:35:59.162Z,57.35
2022-10-18T09:38:50.535Z,51.72
2022-10-18T09:41:42.560Z,57.53
2022-10-18T09:44:35.475Z,64.13
2022-10-18T09:47:28.099Z,54.53
2022-10-18T09:50:20.675Z,57.75
2022-10-18T09:53:14.254Z,55.25
2022-10-18T09:56:05.492Z,54.95
2022-10-18T09:58:54.952Z,54.72
2022-10-18T10:01:45.072Z,50.47
2022-10-18T10:04:35.402Z,49.50
2022-10-18T10:07:29.934Z,53.20
2022-10-18T10:10:24.819Z,51.85
2022-10-18T10:13:19.399Z,60.58
2022-10-18T10:16:08.719Z,49.75
2022-10-18T10:18:58.646Z,58.20
2022-10-18T10:21:50.018Z,54.92
2022-10-18T10:24:48.142Z,56.08
2022-10-18T10:27:43.815Z,51.67
2022-10-18T10:30:34.711Z,61.95
2022-10-18T10:33:35.850Z,52.17
2022-10-18T10:36:26.150Z,46.85
2022-10-18T10:39:21.208Z,51.03
2022-10-18T10:42:15.105Z,54.80
2022-10-18T10:45:04.435Z,63.80
2022-10-18T10:47:55.880Z,58.28
2022-10-18T10:51:05.691Z,60.95
2022-10-18T10:54:01.668Z,67.72
2022-10-18T10:56:59.407Z,52.53
2022-10-18T10:59:51.226Z,46.33
2022-10-18T11:02:42.100Z,56.58
2022-10-18T11:05:43.489Z,45.95
2022-10-18T11:08:38.727Z,51.47
2022-10-18T11:11:33.597Z,61.95
2022-10-18T11:14:27.710Z,45.97
2022-10-18T11:17:23.668Z,49.65
2022-10-18T11:20:21.555Z,43.10
2022-10-18T11:23:14.351Z,50.55
2022-10-18T11:26:23.068Z,54.70
2022-10-18T11:29:29.858Z,44.58
2022-10-18T11:32:27.925Z,50.70
2022-10-18T11:35:39.020Z,53.10
2022-10-18T11:38:35.640Z,51.13
2022-10-18T11:41:40.033Z,46.15
2022-10-18T11:44:38.188Z,47.85
2022-10-18T11:47:33.408Z,53.47
2022-10-18T11:50:31.400Z,42.22
2022-10-18T11:53:27.580Z,48.45
2022-10-18T11:56:22.944Z,51.85
2022-10-18T11:59:29.287Z,42.15
2022-10-18T12:02:43.810Z,41.50
2022-10-18T12:05:34.845Z,37.13
2022-10-18T12:08:29.509Z,56.17
2022-10-18T12:11:22.092Z,50.30
2022-10-18T12:14:22.603Z,38.88
2022-10-18T12:17:41.755Z,35.78
2022-10-18T12:20:33.292Z,53.42
2022-10-18T12:23:24.000Z,61.20
2022-10-18T12:26:13.904Z,58.63
2022-10-18T12:29:15.713Z,43.50
2022-10-18T12:32:08.178Z,37.13
2022-10-18T12:35:00.497Z,52.45
2022-10-18T12:38:12.811Z,49.92
2022-10-18T12:41:02.359Z,47.55
2022-10-18T12:43:56.331Z,56.03
2022-10-18T12:46:46.926Z,48.63
2022-10-18T12:49:41.353Z,42.10
2022-10-18T12:52:36.957Z,30.58
2022-10-18T12:55:34.220Z,42.10
2022-10-18T12:58:26.634Z,34.78
2022-10-18T13:01:15.904Z,40.13
2022-10-18T13:04:25.960Z,38.58
2022-10-18T13:07:25.048Z,35.58
2022-10-18T13:10:41.626Z,30.13
2022-10-18T13:13:50.865Z,33.97
2022-10-18T13:16:47.023Z,29.40
2022-10-18T13:19:49.062Z,47.50
2022-10-18T13:22:59.932Z,33.88
2022-10-18T13:25:58.212Z,35.33
2022-10-18T13:28:53.917Z,27.05
2022-10-18T13:31:47.675Z,23.38
2022-10-18T13:34:39.396Z,50.40
2022-10-18T13:37:30.362Z,44.13
2022-10-18T13:40:27.848Z,34.22
2022-10-18T13:43:54.013Z,32.60
2022-10-18T13:47:19.096Z,44.45
2022-10-18T13:50:34.857Z,42.10
2022-10-18T13:53:37.667Z,36.53
2022-10-18T13:56:50.771Z,28.65
2022-10-18T14:00:05.868Z,28.10
2022-10-18T14:03:37.911Z,35.13
2022-10-18T14:06:34.364Z,30.17
2022-10-18T14:09:40.242Z,43.78
2022-10-18T14:12:42.187Z,39.03
2022-10-18T14:15:36.822Z,29.10
2022-10-18T14:18:31.820Z,29.48
2022-10-18T14:21:30.226Z,38.35
2022-10-18T14:24:21.976Z,44.20
2022-10-18T14:27:29.029Z,47.92
2022-10-18T14:30:20.505Z,32.17
2022-10-18T14:33:26.019Z,36.50
2022-10-18T14:36:16.798Z,36.83
2022-10-18T14:39:06.493Z,26.27
2022-10-18T14:41:56.365Z,34.97
2022-10-18T14:44:54.211Z,31.13
2022-10-18T14:47:48.950Z,30.50
2022-10-18T14:50:39.764Z,26.52
2022-10-18T14:53:32.532Z,31.48
2022-10-18T14:56:26.780Z,29.67
2022-10-18T14:59:19.004Z,33.10
2022-10-18T15:02:15.051Z,33.35
2022-10-18T15:05:10.746Z,29.10
2022-10-18T15:08:01.090Z,32.20
2022-10-18T15:10:50.880Z,30.95
2022-10-18T15:13:46.962Z,33.03
2022-10-18T15:16:36.583Z,26.75
2022-10-18T15:19:35.515Z,48.05
2022-10-18T15:22:31.778Z,45.35
2022-10-18T15:25:29.313Z,29.40
2022-10-18T15:28:26.673Z,28.83
2022-10-18T15:31:23.042Z,39.83
2022-10-18T15:34:16.948Z,50.55
2022-10-18T15:37:17.208Z,29.63
2022-10-18T15:40:31.879Z,29.30
2022-10-18T15:43:40.818Z,31.42
2022-10-18T15:46:33.658Z,37.78
2022-10-18T15:49:52.655Z,42.03
2022-10-18T15:52:42.342Z,44.28
2022-10-18T15:55:49.417Z,28.77
2022-10-18T15:58:43.970Z,30.00
2022-10-18T16:01:37.257Z,23.33
2022-10-18T16:04:28.506Z,36.15
2022-10-18T16:07:17.630Z,25.55
2022-10-18T16:10:14.610Z,27.13
2022-10-18T16:13:05.232Z,30.88
2022-10-18T16:15:55.880Z,33.70
2022-10-18T16:18:45.079Z,30.25
2022-10-18T16:21:35.791Z,35.42
2022-10-18T16:24:25.297Z,31.23
2022-10-18T16:27:14.434Z,31.08
2022-10-18T16:30:12.380Z,28.85
2022-10-18T16:33:01.292Z,32.28
2022-10-18T16:35:50.756Z,27.63
2022-10-18T16:38:40.036Z,32.75
2022-10-18T16:41:29.434Z,27.00
2022-10-18T16:44:19.293Z,33.17
2022-10-18T16:47:12.603Z,27.48
2022-10-18T16:50:06.502Z,49.53
2022-10-18T16:52:56.263Z,38.88
2022-10-18T16:55:45.259Z,32.67
2022-10-18T16:58:34.904Z,29.50
2022-10-18T17:01:25.537Z,43.50
2022-10-18T17:04:16.141Z,45.90
2022-10-18T17:07:06.193Z,43.00
2022-10-18T17:09:54.943Z,41.70
2022-10-18T17:12:44.347Z,33.90
2022-10-18T17:15:35.118Z,30.65
2022-10-18T17:18:26.439Z,35.53
2022-10-18T17:21:17.447Z,36.75
2022-10-18T17:24:06.766Z,31.60
2022-10-18T17:26:56.335Z,34.50
2022-10-18T17:29:45.412Z,32.17
2022-10-18T17:32:34.847Z,32.55
2022-10-18T17:35:24.266Z,32.22
2022-10-18T17:38:14.814Z,31.25
2022-10-18T17:41:08.761Z,33.45
2022-10-18T17:43:57.972Z,50.17
2022-10-18T17:46:46.851Z,42.60
2022-10-18T17:49:35.926Z,50.47
2022-10-18T17:52:25.217Z,50.65
2022-10-18T17:55:16.757Z,47.63
2022-10-18T17:58:05.943Z,49.72
2022-10-18T18:00:55.303Z,60.42
2022-10-18T18:03:44.709Z,53.85
2022-10-18T18:06:35.292Z,49.70
2022-10-18T18:09:24.809Z,50.92
2022-10-18T18:12:15.493Z,45.47
2022-10-18T18:15:04.619Z,45.65
2022-10-18T18:17:58.059Z,46.00
2022-10-18T18:20:54.532Z,48.72
2022-10-18T18:23:44.400Z,61.45
2022-10-18T18:26:33.887Z,69.75
2022-10-18T18:29:35.867Z,55.33
2022-10-18T18:32:27.981Z,54.03
2022-10-18T18:35:18.147Z,59.40
2022-10-18T18:38:07.721Z,55.20
2022-10-18T18:41:05.973Z,60.55
2022-10-18T18:43:56.740Z,56.28
2022-10-18T18:46:50.601Z,66.38
2022-10-18T18:49:39.960Z,58.78
2022-10-18T18:52:29.235Z,62.95
2022-10-18T18:55:17.971Z,56.20
2022-10-18T18:58:06.630Z,65.95
2022-10-18T19:00:55.090Z,68.65
2022-10-18T19:03:46.067Z,67.95
2022-10-18T19:06:36.702Z,68.57
2022-10-18T19:09:27.347Z,67.47
2022-10-18T19:12:20.501Z,64.72
2022-10-18T19:15:10.773Z,65.45
2022-10-18T19:17:59.550Z,67.15
2022-10-18T19:20:50.312Z,71.47
2022-10-18T19:23:39.525Z,64.63
2022-10-18T19:26:39.123Z,60.30
2022-10-18T19:29:28.571Z,61.70
2022-10-18T19:32:18.999Z,69.47
2022-10-18T19:35:08.949Z,70.40
2022-10-18T19:37:59.590Z,65.70
2022-10-18T19:40:52.960Z,45.85
2022-10-18T19:43:43.161Z,51.13
2022-10-18T19:46:32.161Z,64.07
2022-10-18T19:49:21.614Z,65.20
2022-10-18T19:52:12.577Z,67.85
2022-10-18T19:55:03.459Z,64.45
2022-10-18T19:57:52.747Z,64.45
2022-10-18T20:00:42.275Z,74.03
2022-10-18T20:03:31.816Z,69.88
2022-10-18T20:06:21.786Z,64.10
2022-10-18T20:09:14.751Z,69.82
2022-10-18T20:12:08.349Z,65.30
2022-10-18T20:14:57.722Z,66.18
2022-10-18T20:17:46.815Z,74.32
2022-10-18T20:20:37.155Z,65.63
2022-10-18T20:23:26.000Z,67.85
2022-10-18T20:26:20.534Z,72.45
2022-10-18T20:29:11.411Z,80.88
2022-10-18T20:32:01.153Z,72.63
2022-10-18T20:34:50.321Z,63.72
2022-10-18T20:37:39.837Z,67.22
2022-10-18T20:40:28.877Z,65.93
2022-10-18T20:43:18.392Z,65.25
2022-10-18T20:46:11.565Z,61.08
2022-10-18T20:49:00.742Z,61.47
2022-10-18T20:51:49.763Z,63.88
2022-10-18T20:54:39.232Z,69.68
2022-10-18T20:57:34.176Z,63.42
2022-10-18T21:00:26.015Z,62.13
2022-10-18T21:03:16.395Z,62.08
2022-10-18T21:06:11.288Z,60.28
2022-10-18T21:09:01.389Z,61.83
2022-10-18T21:11:54.127Z,66.72
2022-10-18T21:14:43.688Z,54.95
2022-10-18T21:17:33.066Z,73.68
2022-10-18T21:20:23.706Z,61.13
2022-10-18T21:23:12.595Z,67.43
2022-10-18T21:26:01.775Z,55.42
2022-10-18T21:28:51.688Z,63.85
2022-10-18T21:31:43.582Z,59.50
2022-10-18T21:34:33.006Z,61.58
2022-10-18T21:37:23.999Z,64.68
2022-10-18T21:40:13.973Z,55.97
2022-10-18T21:43:03.307Z,63.95
2022-10-18T21:45:58.533Z,64.18
2022-10-18T21:48:48.953Z,55.55
2022-10-18T21:51:37.989Z,59.95
2022-10-18T21:54:28.529Z,57.90
2022-10-18T21:57:17.739Z,55.58
2022-10-18T22:00:07.988Z,54.20
2022-10-18T22:03:08.153Z,49.63
2022-10-18T22:06:01.535Z,50.80
2022-10-18T22:08:52.265Z,52.85
2022-10-18T22:11:45.133Z,52.85
2022-10-18T22:14:34.702Z,50.58
2022-10-18T22:17:24.006Z,48.60
2022-10-18T22:20:14.047Z,53.08
2022-10-18T22:23:03.162Z,52.55
2022-10-18T22:25:52.123Z,56.65
2022-10-18T22:28:44.349Z,53.67
2022-10-18T22:31:35.866Z,47.13
2022-10-18T22:34:27.789Z,54.20
2022-10-18T22:37:17.125Z,53.38
2022-10-18T22:40:06.664Z,52.95
2022-10-18T22:42:55.704Z,49.67
2022-10-18T22:45:46.819Z,49.35
2022-10-18T22:48:36.740Z,42.20
2022-10-18T22:51:25.657Z,41.63
2022-10-18T22:54:14.798Z,46.50
2022-10-18T22:57:03.723Z,38.70
2022-10-18T22:59:52.838Z,46.42
2022-10-18T23:02:43.375Z,47.72
2022-10-18T23:05:32.679Z,40.92
2022-10-18T23:08:22.076Z,43.90
2022-10-18T23:11:11.062Z,37.15
2022-10-18T23:14:00.284Z,36.92
2022-10-18T23:16:49.695Z,39.70
2022-10-18T23:19:41.198Z,37.95
2022-10-18T23:22:30.484Z,31.35
2022-10-18T23:25:20.623Z,32.67
2022-10-18T23:28:09.721Z,32.28
2022-10-18T23:30:58.806Z,36.13
2022-10-18T23:33:48.910Z,30.98
2022-10-18T23:36:39.428Z,30.27
2022-10-18T23:39:28.815Z,34.22
2022-10-18T23:42:18.085Z,30.13
2022-10-18T23:45:08.883Z,33.33
2022-10-18T23:47:57.810Z,34.17
2022-10-18T23:50:47.035Z,38.13
2022-10-18T23:53:37.989Z,35.38
2022-10-18T23:56:27.631Z,42.42
2022-10-18T23:59:17.101Z,30.30
